createdAt,value
2018-11-03T00:00:56.282Z,78.48
2018-11-03T00:01:56.502Z,78.29
2018-11-03T00:02:56.724Z,77.53
2018-11-03T00:03:56.950Z,76.20
2018-11-03T00:04:57.176Z,75.81
2018-11-03T00:05:57.403Z,75.24
2018-11-03T00:06:57.636Z,75.72
2018-11-03T00:07:57.877Z,75.72
2018-11-03T00:08:58.078Z,75.81
2018-11-03T00:09:58.302Z,75.91
2018-11-03T00:10:58.527Z,73.69
2018-11-03T00:11:58.752Z,71.97
2018-11-03T00:12:58.982Z,71.59
2018-11-03T00:13:59.207Z,71.31
2018-11-03T00:14:59.438Z,72.16
2018-11-03T00:15:59.663Z,72.74
2018-11-03T00:16:59.886Z,72.74
2018-11-03T00:18:00.113Z,73.78
2018-11-03T00:19:00.336Z,73.49
2018-11-03T00:20:00.566Z,73.59
2018-11-03T00:21:00.790Z,74.48
2018-11-03T00:22:01.023Z,75.96
2018-11-03T00:23:01.242Z,76.20
2018-11-03T00:24:01.464Z,75.49
2018-11-03T00:25:01.686Z,74.48
2018-11-03T00:26:01.909Z,73.59
2018-11-03T00:27:02.142Z,74.16
2018-11-03T00:28:02.361Z,73.69
2018-11-03T00:29:02.589Z,73.82
2018-11-03T00:30:02.812Z,74.39
2018-11-03T00:31:03.037Z,74.87
2018-11-03T00:32:03.268Z,75.24
2018-11-03T00:33:03.485Z,76.01
2018-11-03T00:34:03.706Z,75.91
2018-11-03T00:35:03.931Z,76.10
2018-11-03T00:36:04.160Z,76.67
2018-11-03T00:37:04.383Z,76.39
2018-11-03T00:38:04.609Z,76.86
2018-11-03T00:39:04.832Z,76.48
2018-11-03T00:40:05.057Z,76.20
2018-11-03T00:41:05.288Z,77.05
2018-11-03T00:42:05.507Z,76.06
2018-11-03T00:43:05.731Z,75.81
2018-11-03T00:44:05.959Z,74.54
2018-11-03T00:45:06.183Z,73.78
2018-11-03T00:46:06.408Z,72.55
2018-11-03T00:47:06.630Z,71.97
2018-11-03T00:48:06.863Z,73.40
2018-11-03T00:49:07.082Z,74.54
2018-11-03T00:50:07.310Z,76.16
2018-11-03T00:51:07.532Z,75.11
2018-11-03T00:52:07.758Z,75.49
2018-11-03T00:53:07.985Z,75.68
2018-11-03T00:54:08.211Z,75.87
2018-11-03T00:55:08.428Z,75.68
2018-11-03T00:56:08.653Z,76.16
2018-11-03T00:57:08.873Z,76.82
2018-11-03T00:58:09.103Z,76.25
2018-11-03T00:59:09.326Z,76.06
2018-11-03T01:00:09.548Z,76.44
2018-11-03T01:01:09.787Z,76.06
2018-11-03T01:02:09.998Z,74.63
2018-11-03T01:03:10.220Z,71.94
2018-11-03T01:04:10.441Z,73.36
2018-11-03T01:05:10.667Z,73.65
2018-11-03T01:06:10.893Z,74.98
2018-11-03T01:07:11.119Z,74.92
2018-11-03T01:08:11.343Z,74.54
2018-11-03T01:09:11.572Z,74.12
2018-11-03T01:10:11.795Z,74.22
2018-11-03T01:11:12.018Z,74.31
2018-11-03T01:12:12.241Z,73.08
2018-11-03T01:13:12.460Z,71.75
2018-11-03T01:14:12.685Z,70.13
2018-11-03T01:15:12.913Z,68.61
2018-11-03T01:16:13.142Z,68.71
2018-11-03T01:17:13.362Z,68.33
2018-11-03T01:18:13.591Z,68.04
2018-11-03T01:19:13.815Z,67.76
2018-11-03T01:20:14.038Z,67.28
2018-11-03T01:21:14.253Z,67.94
2018-11-03T01:22:14.496Z,68.71
2018-11-03T01:23:14.717Z,69.56
2018-11-03T01:24:14.941Z,69.46
2018-11-03T01:25:15.202Z,67.94
2018-11-03T01:26:15.388Z,67.94
2018-11-03T01:27:15.611Z,68.33
2018-11-03T01:28:15.840Z,68.23
2018-11-03T01:29:16.054Z,68.90
2018-11-03T01:30:16.282Z,69.46
2018-11-03T01:31:16.506Z,69.75
2018-11-03T01:32:16.738Z,68.80
2018-11-03T01:33:16.983Z,67.94
2018-11-03T01:34:17.207Z,67.19
2018-11-03T01:35:17.423Z,66.05
2018-11-03T01:36:17.637Z,64.59
2018-11-03T01:37:17.859Z,64.30
2018-11-03T01:38:18.083Z,64.43
2018-11-03T01:39:18.307Z,66.24
2018-11-03T01:40:18.533Z,67.38
2018-11-03T01:41:18.767Z,69.46
2018-11-03T01:42:18.998Z,70.13
2018-11-03T01:43:19.217Z,71.27
2018-11-03T01:44:19.434Z,71.27
2018-11-03T01:45:19.656Z,71.08
2018-11-03T01:46:19.882Z,71.27
2018-11-03T01:47:20.105Z,71.37
2018-11-03T01:48:20.332Z,70.99
2018-11-03T01:49:20.554Z,71.08
2018-11-03T01:50:20.777Z,69.94
2018-11-03T01:51:21.003Z,69.75
2018-11-03T01:52:21.228Z,69.37
2018-11-03T01:53:21.451Z,67.47
2018-11-03T01:54:21.672Z,65.47
2018-11-03T01:55:21.896Z,64.24
2018-11-03T01:56:22.123Z,64.53
2018-11-03T01:57:22.348Z,64.62
2018-11-03T01:58:22.569Z,64.53
2018-11-03T01:59:22.798Z,64.53
2018-11-03T02:00:23.072Z,65.67
2018-11-03T02:01:23.245Z,65.86
2018-11-03T02:02:23.469Z,65.09
2018-11-03T02:03:23.693Z,64.90
2018-11-03T02:04:23.922Z,65.28
2018-11-03T02:05:24.143Z,65.76
2018-11-03T02:06:24.370Z,66.80
2018-11-03T02:07:24.594Z,66.05
2018-11-03T02:08:24.817Z,67.38
2018-11-03T02:09:25.041Z,67.19
2018-11-03T02:10:25.263Z,66.71
2018-11-03T02:11:25.489Z,66.33
2018-11-03T02:12:25.714Z,64.90
2018-11-03T02:13:25.940Z,63.95
2018-11-03T02:14:26.168Z,64.14
2018-11-03T02:15:26.385Z,64.34
2018-11-03T02:16:26.608Z,65.38
2018-11-03T02:17:26.840Z,67.00
2018-11-03T02:18:27.057Z,67.09
2018-11-03T02:19:27.279Z,68.52
2018-11-03T02:20:27.503Z,68.13
2018-11-03T02:21:27.724Z,68.33
2018-11-03T02:22:27.953Z,68.61
2018-11-03T02:23:28.175Z,69.69
2018-11-03T02:24:28.399Z,70.54
2018-11-03T02:25:28.625Z,69.56
2018-11-03T02:26:28.850Z,69.18
2018-11-03T02:27:29.072Z,70.64
2018-11-03T02:28:29.297Z,70.93
2018-11-03T02:29:29.522Z,70.45
2018-11-03T02:30:29.747Z,69.66
2018-11-03T02:31:29.971Z,68.13
2018-11-03T02:32:30.196Z,66.61
2018-11-03T02:33:30.416Z,67.28
2018-11-03T02:34:30.651Z,67.09
2018-11-03T02:35:30.868Z,67.19
2018-11-03T02:36:31.091Z,67.09
2018-11-03T02:37:31.349Z,67.66
2018-11-03T02:38:31.538Z,68.04
2018-11-03T02:39:31.762Z,67.76
2018-11-03T02:40:31.997Z,66.71
2018-11-03T02:41:32.205Z,66.33
2018-11-03T02:42:32.432Z,66.05
2018-11-03T02:43:32.655Z,67.76
2018-11-03T02:44:32.907Z,67.50
2018-11-03T02:45:33.105Z,67.98
2018-11-03T02:46:33.374Z,69.02
2018-11-03T02:47:33.595Z,69.79
2018-11-03T02:48:33.826Z,69.88
2018-11-03T02:49:34.054Z,71.31
2018-11-03T02:50:34.271Z,71.97
2018-11-03T02:51:34.488Z,71.31
2018-11-03T02:52:34.719Z,69.31
2018-11-03T02:53:34.944Z,68.93
2018-11-03T02:54:35.165Z,67.66
2018-11-03T02:55:35.388Z,67.66
2018-11-03T02:56:35.613Z,68.13
2018-11-03T02:57:35.832Z,69.60
2018-11-03T02:58:36.059Z,70.26
2018-11-03T02:59:36.285Z,70.79
2018-11-03T03:00:36.512Z,68.80
2018-11-03T03:01:36.739Z,67.76
2018-11-03T03:02:36.962Z,67.19
2018-11-03T03:03:37.183Z,66.52
2018-11-03T03:04:37.407Z,67.28
2018-11-03T03:05:37.626Z,68.23
2018-11-03T03:06:37.852Z,69.50
2018-11-03T03:07:38.076Z,70.64
2018-11-03T03:08:38.301Z,71.12
2018-11-03T03:09:38.528Z,70.83
2018-11-03T03:10:38.749Z,71.78
2018-11-03T03:11:38.968Z,72.26
2018-11-03T03:12:39.195Z,71.88
2018-11-03T03:13:39.438Z,72.64
2018-11-03T03:14:39.642Z,73.59
2018-11-03T03:15:39.873Z,73.49
2018-11-03T03:16:40.096Z,74.44
2018-11-03T03:17:40.321Z,74.63
2018-11-03T03:18:40.548Z,75.30
2018-11-03T03:19:40.767Z,75.21
2018-11-03T03:20:40.991Z,73.84
2018-11-03T03:21:41.218Z,73.46
2018-11-03T03:22:41.440Z,73.93
2018-11-03T03:23:41.671Z,73.84
2018-11-03T03:24:41.891Z,73.55
2018-11-03T03:25:42.114Z,72.89
2018-11-03T03:26:42.336Z,72.79
2018-11-03T03:27:42.559Z,73.27
2018-11-03T03:28:42.838Z,71.84
2018-11-03T03:29:43.095Z,71.94
2018-11-03T03:30:43.233Z,72.41
2018-11-03T03:31:43.459Z,70.95
2018-11-03T03:32:43.680Z,69.34
2018-11-03T03:33:43.907Z,68.29
2018-11-03T03:34:44.136Z,67.72
2018-11-03T03:35:44.359Z,67.53
2018-11-03T03:36:44.581Z,67.15
2018-11-03T03:37:44.806Z,67.06
2018-11-03T03:38:45.028Z,67.15
2018-11-03T03:39:45.253Z,64.94
2018-11-03T03:40:45.478Z,63.60
2018-11-03T03:41:45.703Z,61.04
2018-11-03T03:42:45.934Z,58.95
2018-11-03T03:43:46.151Z,57.62
2018-11-03T03:44:46.379Z,57.34
2018-11-03T03:45:46.605Z,56.96
2018-11-03T03:46:46.826Z,57.24
2018-11-03T03:47:47.049Z,56.87
2018-11-03T03:48:47.273Z,56.01
2018-11-03T03:49:47.499Z,57.15
2018-11-03T03:50:47.721Z,58.39
2018-11-03T03:51:47.939Z,59.14
2018-11-03T03:52:48.157Z,59.14
2018-11-03T03:53:48.388Z,59.24
2018-11-03T03:54:48.605Z,60.10
2018-11-03T03:55:48.835Z,61.04
2018-11-03T03:56:49.052Z,60.10
2018-11-03T03:57:49.277Z,61.33
2018-11-03T03:58:49.498Z,60.28
2018-11-03T03:59:49.723Z,59.52
2018-11-03T04:00:49.952Z,58.67
2018-11-03T04:01:50.174Z,58.95
2018-11-03T04:02:50.397Z,58.58
2018-11-03T04:03:50.622Z,59.43
2018-11-03T04:04:50.848Z,61.04
2018-11-03T04:05:51.081Z,62.08
2018-11-03T04:06:51.295Z,61.61
2018-11-03T04:07:51.521Z,61.52
2018-11-03T04:08:51.744Z,61.04
2018-11-03T04:09:51.972Z,60.28
2018-11-03T04:10:52.193Z,60.28
2018-11-03T04:11:52.416Z,59.52
2018-11-03T04:12:52.640Z,59.81
2018-11-03T04:13:52.862Z,61.52
2018-11-03T04:14:53.088Z,60.57
2018-11-03T04:15:53.312Z,61.52
2018-11-03T04:16:53.544Z,63.13
2018-11-03T04:17:53.760Z,63.13
2018-11-03T04:18:53.986Z,63.79
2018-11-03T04:19:54.215Z,64.37
2018-11-03T04:20:54.459Z,64.56
2018-11-03T04:21:54.656Z,64.75
2018-11-03T04:22:54.880Z,64.24
2018-11-03T04:23:55.116Z,63.57
2018-11-03T04:24:55.330Z,63.10
2018-11-03T04:25:55.594Z,62.62
2018-11-03T04:26:55.760Z,61.68
2018-11-03T04:27:55.978Z,61.96
2018-11-03T04:28:56.205Z,63.79
2018-11-03T04:29:56.427Z,63.86
2018-11-03T04:30:56.651Z,63.39
2018-11-03T04:31:56.895Z,60.63
2018-11-03T04:32:57.149Z,59.21
2018-11-03T04:33:57.362Z,59.11
2018-11-03T04:34:57.588Z,57.69
2018-11-03T04:35:57.808Z,58.64
2018-11-03T04:36:58.031Z,58.92
2018-11-03T04:37:58.266Z,58.26
2018-11-03T04:38:58.516Z,57.40
2018-11-03T04:39:58.732Z,56.17
2018-11-03T04:40:58.954Z,56.36
2018-11-03T04:41:59.176Z,57.40
2018-11-03T04:42:59.403Z,60.25
2018-11-03T04:43:59.632Z,62.24
2018-11-03T04:44:59.850Z,63.10
2018-11-03T04:46:00.073Z,60.25
2018-11-03T04:47:00.295Z,57.50
2018-11-03T04:48:00.518Z,55.13
2018-11-03T04:49:00.741Z,51.62
2018-11-03T04:50:00.967Z,49.24
2018-11-03T04:51:01.194Z,47.73
2018-11-03T04:52:01.411Z,46.97
2018-11-03T04:53:01.634Z,46.88
2018-11-03T04:54:01.858Z,46.49
2018-11-03T04:55:02.118Z,46.11
2018-11-03T04:56:02.311Z,45.45
2018-11-03T04:57:02.531Z,46.11
2018-11-03T04:58:02.756Z,46.97
2018-11-03T04:59:02.983Z,48.30
2018-11-03T05:00:03.211Z,49.82
2018-11-03T05:01:03.430Z,50.76
2018-11-03T05:02:03.662Z,51.45
2018-11-03T05:03:03.885Z,52.12
2018-11-03T05:04:04.106Z,52.56
2018-11-03T05:05:04.327Z,53.04
2018-11-03T05:06:04.555Z,53.33
2018-11-03T05:07:04.775Z,54.11
2018-11-03T05:08:05.001Z,54.94
2018-11-03T05:09:05.225Z,55.60
2018-11-03T05:10:05.490Z,55.73
2018-11-03T05:11:05.687Z,55.51
2018-11-03T05:12:05.900Z,56.36
2018-11-03T05:13:06.121Z,57.12
2018-11-03T05:14:06.345Z,58.73
2018-11-03T05:15:06.570Z,59.14
2018-11-03T05:16:06.793Z,60.35
2018-11-03T05:17:07.053Z,61.52
2018-11-03T05:18:07.245Z,62.72
2018-11-03T05:19:07.467Z,63.86
2018-11-03T05:20:07.687Z,64.33
2018-11-03T05:21:07.949Z,65.95
2018-11-03T05:22:08.153Z,66.42
2018-11-03T05:23:08.367Z,64.81
2018-11-03T05:24:08.588Z,63.39
2018-11-03T05:25:08.815Z,60.25
2018-11-03T05:26:09.035Z,58.07
2018-11-03T05:27:09.261Z,56.99
2018-11-03T05:28:09.480Z,56.24
2018-11-03T05:29:09.705Z,55.76
2018-11-03T05:30:09.928Z,55.57
2018-11-03T05:31:10.271Z,55.38
2018-11-03T05:32:10.379Z,54.91
2018-11-03T05:33:10.595Z,55.00
2018-11-03T05:34:10.819Z,54.46
2018-11-03T05:35:11.043Z,55.32
2018-11-03T05:36:11.262Z,54.34
2018-11-03T05:37:11.489Z,54.18
2018-11-03T05:38:11.712Z,53.70
2018-11-03T05:39:11.931Z,53.80
2018-11-03T05:40:12.172Z,53.33
2018-11-03T05:41:12.383Z,53.23
2018-11-03T05:42:12.604Z,52.76
2018-11-03T05:43:12.832Z,53.23
2018-11-03T05:44:13.048Z,53.61
2018-11-03T05:45:13.272Z,53.70
2018-11-03T05:46:13.509Z,53.23
2018-11-03T05:47:13.720Z,52.76
2018-11-03T05:48:13.941Z,53.42
2018-11-03T05:49:14.164Z,53.89
2018-11-03T05:50:14.388Z,53.42
2018-11-03T05:51:14.612Z,52.76
2018-11-03T05:52:14.842Z,52.00
2018-11-03T05:53:15.065Z,51.14
2018-11-03T05:54:15.291Z,51.05
2018-11-03T05:55:15.516Z,50.57
2018-11-03T05:56:15.751Z,50.76
2018-11-03T05:57:15.971Z,50.48
2018-11-03T05:58:16.205Z,49.53
2018-11-03T05:59:16.407Z,49.72
2018-11-03T06:00:16.635Z,49.63
2018-11-03T06:01:16.862Z,49.91
2018-11-03T06:02:17.085Z,49.34
2018-11-03T06:03:17.313Z,49.15
2018-11-03T06:04:17.531Z,49.82
2018-11-03T06:05:17.760Z,50.20
2018-11-03T06:06:17.980Z,50.95
2018-11-03T06:07:18.204Z,52.02
2018-11-03T06:08:18.430Z,53.35
2018-11-03T06:09:18.655Z,54.30
2018-11-03T06:10:18.879Z,55.91
2018-11-03T06:11:19.117Z,56.20
2018-11-03T06:12:19.318Z,56.10
2018-11-03T06:13:19.537Z,54.46
2018-11-03T06:14:19.766Z,53.07
2018-11-03T06:15:20.061Z,50.95
2018-11-03T06:16:20.215Z,50.70
2018-11-03T06:17:20.440Z,50.29
2018-11-03T06:18:20.664Z,50.60
2018-11-03T06:19:20.891Z,50.67
2018-11-03T06:20:21.110Z,51.05
2018-11-03T06:21:21.332Z,50.76
2018-11-03T06:22:21.627Z,50.98
2018-11-03T06:23:21.836Z,52.40
2018-11-03T06:24:22.005Z,53.83
2018-11-03T06:25:22.230Z,54.30
2018-11-03T06:26:22.454Z,56.20
2018-11-03T06:27:22.678Z,58.20
2018-11-03T06:28:22.902Z,59.24
2018-11-03T06:29:23.126Z,60.28
2018-11-03T06:30:23.347Z,61.52
2018-11-03T06:31:23.603Z,60.76
2018-11-03T06:32:23.799Z,61.33
2018-11-03T06:33:24.023Z,62.46
2018-11-03T06:34:24.248Z,61.33
2018-11-03T06:35:24.544Z,62.37
2018-11-03T06:36:24.697Z,63.42
2018-11-03T06:37:24.923Z,63.23
2018-11-03T06:38:25.142Z,62.46
2018-11-03T06:39:25.366Z,60.66
2018-11-03T06:40:25.589Z,59.81
2018-11-03T06:41:25.826Z,59.24
2018-11-03T06:42:26.036Z,60.38
2018-11-03T06:43:26.260Z,61.52
2018-11-03T06:44:26.487Z,63.32
2018-11-03T06:45:26.710Z,64.08
2018-11-03T06:46:26.938Z,65.03
2018-11-03T06:47:27.254Z,65.12
2018-11-03T06:48:27.382Z,64.37
2018-11-03T06:49:27.607Z,64.27
2018-11-03T06:50:27.833Z,65.06
2018-11-03T06:51:28.061Z,67.12
2018-11-03T06:52:28.282Z,67.15
2018-11-03T06:53:28.505Z,68.48
2018-11-03T06:54:28.730Z,69.49
2018-11-03T06:55:28.952Z,68.16
2018-11-03T06:56:29.176Z,68.54
2018-11-03T06:57:29.401Z,67.31
2018-11-03T06:58:29.626Z,66.27
2018-11-03T06:59:29.866Z,66.27
2018-11-03T07:00:30.078Z,64.94
2018-11-03T07:01:30.305Z,64.56
2018-11-03T07:02:30.533Z,64.46
2018-11-03T07:03:30.753Z,63.23
2018-11-03T07:04:30.974Z,62.18
2018-11-03T07:05:31.200Z,63.01
2018-11-03T07:06:31.425Z,62.75
2018-11-03T07:07:31.652Z,63.23
2018-11-03T07:08:31.876Z,63.60
2018-11-03T07:09:32.092Z,63.13
2018-11-03T07:10:32.317Z,64.08
2018-11-03T07:11:32.616Z,64.56
2018-11-03T07:12:32.912Z,65.50
2018-11-03T07:13:32.982Z,67.12
2018-11-03T07:14:33.208Z,67.88
2018-11-03T07:15:33.429Z,67.82
2018-11-03T07:16:33.650Z,68.77
2018-11-03T07:17:33.876Z,70.29
2018-11-03T07:18:34.106Z,71.43
2018-11-03T07:19:34.325Z,71.23
2018-11-03T07:20:34.548Z,71.71
2018-11-03T07:21:34.791Z,73.61
2018-11-03T07:22:34.996Z,75.51
2018-11-03T07:23:35.214Z,76.56
2018-11-03T07:24:35.440Z,76.56
2018-11-03T07:25:35.669Z,74.47
2018-11-03T07:26:35.899Z,75.04
2018-11-03T07:27:36.115Z,76.27
2018-11-03T07:28:36.338Z,77.41
2018-11-03T07:29:36.574Z,76.27
2018-11-03T07:30:36.789Z,77.22
2018-11-03T07:31:37.016Z,77.92
2018-11-03T07:32:37.256Z,80.21
2018-11-03T07:33:37.468Z,80.77
2018-11-03T07:34:37.691Z,80.87
2018-11-03T07:35:37.915Z,81.35
2018-11-03T07:36:38.143Z,81.82
2018-11-03T07:37:38.360Z,82.49
2018-11-03T07:38:38.587Z,82.87
2018-11-03T07:39:38.816Z,80.49
2018-11-03T07:40:39.065Z,79.35
2018-11-03T07:41:39.411Z,79.06
2018-11-03T07:42:39.531Z,80.40
2018-11-03T07:43:39.730Z,81.73
2018-11-03T07:44:39.932Z,80.11
2018-11-03T07:45:40.160Z,81.01
2018-11-03T07:46:40.416Z,83.10
2018-11-03T07:47:40.608Z,82.53
2018-11-03T07:48:40.898Z,82.05
2018-11-03T07:49:41.056Z,84.05
2018-11-03T07:50:41.282Z,83.67
2018-11-03T07:51:41.507Z,85.76
2018-11-03T07:52:41.743Z,84.62
2018-11-03T07:53:41.961Z,85.38
2018-11-03T07:54:42.213Z,85.19
2018-11-03T07:55:42.404Z,85.86
2018-11-03T07:56:42.628Z,85.86
2018-11-03T07:57:42.853Z,86.52
2018-11-03T07:58:43.079Z,86.05
2018-11-03T07:59:43.305Z,84.33
2018-11-03T08:00:43.635Z,87.38
2018-11-03T08:01:43.757Z,88.42
2018-11-03T08:02:43.981Z,90.23
2018-11-03T08:03:44.206Z,89.28
2018-11-03T08:04:44.431Z,89.47
2018-11-03T08:05:44.654Z,88.52
2018-11-03T08:06:44.879Z,87.47
2018-11-03T08:07:45.101Z,86.99
2018-11-03T08:08:45.352Z,85.86
2018-11-03T08:09:45.554Z,85.86
2018-11-03T08:10:45.780Z,86.71
2018-11-03T08:11:46.006Z,85.95
2018-11-03T08:12:46.231Z,84.43
2018-11-03T08:13:46.457Z,83.86
2018-11-03T08:14:46.684Z,84.52
2018-11-03T08:15:47.047Z,84.62
2018-11-03T08:16:47.131Z,84.52
2018-11-03T08:17:47.354Z,84.91
2018-11-03T08:18:47.578Z,85.66
2018-11-03T08:19:47.804Z,86.24
2018-11-03T08:20:48.030Z,85.38
2018-11-03T08:21:48.254Z,84.52
2018-11-03T08:22:48.482Z,83.00
2018-11-03T08:23:48.717Z,82.43
2018-11-03T08:24:48.935Z,83.29
2018-11-03T08:25:49.162Z,83.67
2018-11-03T08:26:49.386Z,84.14
2018-11-03T08:27:49.624Z,85.95
2018-11-03T08:28:49.837Z,86.76
2018-11-03T08:29:50.057Z,88.18
2018-11-03T08:30:50.289Z,87.99
2018-11-03T08:31:50.508Z,88.18
2018-11-03T08:32:50.733Z,88.56
2018-11-03T08:33:50.961Z,89.04
2018-11-03T08:34:51.182Z,88.75
2018-11-03T08:35:51.409Z,88.85
2018-11-03T08:36:51.634Z,89.51
2018-11-03T08:37:51.868Z,89.61
2018-11-03T08:38:52.094Z,89.23
2018-11-03T08:39:52.306Z,88.37
2018-11-03T08:40:52.533Z,86.76
2018-11-03T08:41:52.829Z,86.94
2018-11-03T08:42:52.984Z,87.04
2018-11-03T08:43:53.206Z,87.32
2018-11-03T08:44:53.420Z,87.52
2018-11-03T08:45:53.650Z,87.99
2018-11-03T08:46:53.872Z,88.18
2018-11-03T08:47:54.102Z,87.42
2018-11-03T08:48:55.118Z,87.42
2018-11-03T08:49:54.538Z,87.42
2018-11-03T08:50:54.765Z,87.80
2018-11-03T08:51:54.991Z,88.75
2018-11-03T08:52:55.252Z,89.04
2018-11-03T08:53:55.439Z,89.51
2018-11-03T08:54:55.669Z,91.42
2018-11-03T08:55:55.898Z,91.13
2018-11-03T08:56:56.125Z,92.46
2018-11-03T08:57:56.349Z,92.46
2018-11-03T08:58:56.573Z,92.75
2018-11-03T08:59:57.002Z,93.51
2018-11-03T09:00:57.026Z,93.04
2018-11-03T09:01:57.251Z,93.04
2018-11-03T09:02:57.494Z,92.94
2018-11-03T09:03:57.700Z,94.18
2018-11-03T09:04:57.931Z,93.04
2018-11-03T09:05:58.156Z,93.32
2018-11-03T09:06:58.430Z,94.37
2018-11-03T09:07:58.601Z,94.37
2018-11-03T09:08:58.828Z,93.60
2018-11-03T09:09:59.051Z,93.13
2018-11-03T09:10:59.569Z,93.13
2018-11-03T09:11:59.546Z,93.51
2018-11-03T09:12:59.769Z,93.70
2018-11-03T09:13:59.998Z,95.32
2018-11-03T09:15:00.291Z,94.37
2018-11-03T09:16:00.448Z,94.42
2018-11-03T09:17:00.675Z,95.08
2018-11-03T09:18:00.908Z,96.70
2018-11-03T09:19:01.131Z,95.46
2018-11-03T09:20:01.369Z,93.13
2018-11-03T09:21:01.582Z,92.84
2018-11-03T09:22:01.838Z,94.27
2018-11-03T09:23:02.034Z,96.55
2018-11-03T09:24:02.260Z,95.12
2018-11-03T09:25:02.492Z,93.79
2018-11-03T09:26:02.716Z,92.65
2018-11-03T09:27:02.941Z,93.23
2018-11-03T09:28:03.169Z,93.13
2018-11-03T09:29:03.396Z,92.41
2018-11-03T09:30:03.620Z,95.79
2018-11-03T09:31:03.846Z,99.08
2018-11-03T09:32:04.176Z,98.03
2018-11-03T09:33:04.299Z,97.36
2018-11-03T09:34:04.525Z,99.46
2018-11-03T09:35:04.750Z,99.99
2018-11-03T09:36:04.977Z,99.99
2018-11-03T09:37:05.206Z,98.60
2018-11-03T09:38:05.429Z,98.88
2018-11-03T09:39:05.698Z,99.99
2018-11-03T09:40:05.881Z,99.99
2018-11-03T09:41:06.109Z,99.99
2018-11-03T09:42:06.336Z,99.99
2018-11-03T09:43:06.568Z,99.99
2018-11-03T09:44:06.811Z,99.99
2018-11-03T09:45:07.111Z,99.99
2018-11-03T09:46:07.241Z,98.79
2018-11-03T09:47:07.467Z,99.36
2018-11-03T09:48:07.697Z,99.99
2018-11-03T09:49:07.918Z,99.99
2018-11-03T09:50:08.151Z,99.99
2018-11-03T09:51:08.400Z,99.99
2018-11-03T09:52:08.602Z,99.99
2018-11-03T09:53:08.827Z,99.99
2018-11-03T09:54:09.057Z,99.99
2018-11-03T09:55:09.284Z,99.99
2018-11-03T09:56:09.506Z,99.99
2018-11-03T09:57:09.736Z,99.99
2018-11-03T09:58:09.957Z,99.99
2018-11-03T09:59:10.187Z,99.99
2018-11-03T10:00:10.413Z,99.99
2018-11-03T10:01:10.642Z,99.99
2018-11-03T10:02:10.867Z,99.99
2018-11-03T10:03:11.096Z,99.99
2018-11-03T10:04:11.320Z,99.99
2018-11-03T10:05:11.545Z,99.99
2018-11-03T10:06:11.772Z,99.99
2018-11-03T10:07:12.002Z,99.99
2018-11-03T10:08:12.227Z,99.99
2018-11-03T10:09:12.451Z,99.99
2018-11-03T10:10:12.678Z,99.99
2018-11-03T10:11:12.904Z,99.99
2018-11-03T10:12:13.130Z,99.99
2018-11-03T10:13:13.357Z,99.99
2018-11-03T10:14:13.582Z,99.99
2018-11-03T10:15:13.809Z,99.99
2018-11-03T10:16:14.038Z,99.99
2018-11-03T10:17:14.264Z,99.99
2018-11-03T10:18:14.490Z,99.99
2018-11-03T10:19:14.750Z,99.99
2018-11-03T10:20:14.944Z,99.99
2018-11-03T10:21:15.171Z,99.99
2018-11-03T10:22:15.518Z,99.99
2018-11-03T10:23:15.624Z,99.99
2018-11-03T10:24:15.852Z,99.99
2018-11-03T10:25:16.077Z,99.99
2018-11-03T10:26:16.302Z,99.99
2018-11-03T10:27:16.532Z,99.99
2018-11-03T10:28:16.752Z,99.99
2018-11-03T10:29:16.982Z,99.99
2018-11-03T10:30:17.205Z,99.99
2018-11-03T10:31:17.434Z,99.99
2018-11-03T10:32:17.662Z,99.99
2018-11-03T10:33:17.923Z,99.99
2018-11-03T10:34:18.113Z,99.99
2018-11-03T10:35:18.340Z,99.99
2018-11-03T10:36:18.564Z,99.99
2018-11-03T10:37:18.770Z,99.99
2018-11-03T10:38:19.004Z,99.99
2018-11-03T10:39:19.231Z,99.99
2018-11-03T10:40:19.484Z,99.99
2018-11-03T10:41:19.685Z,99.99
2018-11-03T10:42:19.986Z,99.99
2018-11-03T10:43:20.133Z,99.99
2018-11-03T10:44:20.359Z,99.99
2018-11-03T10:45:20.584Z,99.99
2018-11-03T10:46:20.913Z,99.99
2018-11-03T10:47:21.036Z,99.99
2018-11-03T10:48:21.265Z,99.99
2018-11-03T10:49:21.491Z,99.99
2018-11-03T10:50:21.718Z,99.99
2018-11-03T10:51:21.943Z,99.99
2018-11-03T10:52:22.171Z,99.99
2018-11-03T10:53:22.398Z,99.99
2018-11-03T10:54:22.620Z,99.99
2018-11-03T10:55:22.849Z,99.99
2018-11-03T10:56:23.110Z,99.99
2018-11-03T10:57:23.303Z,99.99
2018-11-03T10:58:23.530Z,99.99
2018-11-03T10:59:23.758Z,99.99
2018-11-03T11:00:23.983Z,99.99
2018-11-03T11:01:24.210Z,99.99
2018-11-03T11:02:24.439Z,99.99
2018-11-03T11:03:24.773Z,99.99
2018-11-03T11:04:24.891Z,99.99
2018-11-03T11:05:25.197Z,99.99
2018-11-03T11:06:25.345Z,99.99
2018-11-03T11:07:25.570Z,99.99
2018-11-03T11:08:25.794Z,99.99
2018-11-03T11:09:26.023Z,99.99
2018-11-03T11:10:26.251Z,99.99
2018-11-03T11:11:26.483Z,99.99
2018-11-03T11:12:26.714Z,99.99
2018-11-03T11:13:26.940Z,99.99
2018-11-03T11:14:27.169Z,99.99
2018-11-03T11:15:27.394Z,99.99
2018-11-03T11:16:27.752Z,99.99
2018-11-03T11:17:27.852Z,99.99
2018-11-03T11:18:28.156Z,99.99
2018-11-03T11:19:28.310Z,99.99
2018-11-03T11:20:28.535Z,99.99
2018-11-03T11:21:28.759Z,99.99
2018-11-03T11:22:28.990Z,99.99
2018-11-03T11:23:29.271Z,99.99
2018-11-03T11:24:29.545Z,99.99
2018-11-03T11:25:29.763Z,99.99
2018-11-03T11:26:29.897Z,99.99
2018-11-03T11:27:30.133Z,99.99
2018-11-03T11:28:30.361Z,99.99
2018-11-03T11:29:30.586Z,99.99
2018-11-03T11:30:30.815Z,99.99
2018-11-03T11:31:31.064Z,99.99
2018-11-03T11:32:31.292Z,99.99
2018-11-03T11:33:31.507Z,99.99
2018-11-03T11:34:31.724Z,99.99
2018-11-03T11:35:31.951Z,99.99
2018-11-03T11:36:32.176Z,99.99
2018-11-03T11:37:32.421Z,99.99
2018-11-03T11:38:32.636Z,99.99
2018-11-03T11:39:32.862Z,99.99
2018-11-03T11:40:33.087Z,99.99
2018-11-03T11:41:33.316Z,99.99
2018-11-03T11:42:33.543Z,99.99
2018-11-03T11:43:33.775Z,99.99
2018-11-03T11:44:34.001Z,99.99
2018-11-03T11:45:34.231Z,99.99
2018-11-03T11:46:34.459Z,99.99
2018-11-03T11:47:34.684Z,99.99
2018-11-03T11:48:34.928Z,99.99
2018-11-03T11:49:35.144Z,99.99
2018-11-03T11:50:35.372Z,99.99
2018-11-03T11:51:35.599Z,99.99
2018-11-03T11:52:35.839Z,99.99
2018-11-03T11:53:36.052Z,99.99
2018-11-03T11:54:36.284Z,99.99
2018-11-03T11:55:36.512Z,99.99
2018-11-03T11:56:36.740Z,99.99
2018-11-03T11:57:36.968Z,99.99
2018-11-03T11:58:37.199Z,99.99
2018-11-03T11:59:37.425Z,99.99
2018-11-03T12:00:37.657Z,99.99
2018-11-03T12:01:37.879Z,99.99
2018-11-03T12:02:38.107Z,99.99
2018-11-03T12:03:38.336Z,99.99
2018-11-03T12:04:38.560Z,99.99
2018-11-03T12:05:38.786Z,99.99
2018-11-03T12:06:39.018Z,99.99
2018-11-03T12:07:39.241Z,99.99
2018-11-03T12:08:39.472Z,99.99
2018-11-03T12:09:39.698Z,99.99
2018-11-03T12:10:39.926Z,99.99
2018-11-03T12:11:40.156Z,99.99
2018-11-03T12:12:40.384Z,99.99
2018-11-03T12:13:40.611Z,99.99
2018-11-03T12:14:40.839Z,99.99
2018-11-03T12:15:41.072Z,99.99
2018-11-03T12:16:41.332Z,99.99
2018-11-03T12:17:41.522Z,99.99
2018-11-03T12:18:41.841Z,99.99
2018-11-03T12:19:41.999Z,99.99
2018-11-03T12:20:42.252Z,99.99
2018-11-03T12:21:42.459Z,99.99
2018-11-03T12:22:42.707Z,99.99
2018-11-03T12:23:42.916Z,99.99
2018-11-03T12:24:43.142Z,99.99
2018-11-03T12:25:43.438Z,99.99
2018-11-03T12:26:43.596Z,99.99
2018-11-03T12:27:43.823Z,99.99
2018-11-03T12:28:44.055Z,99.99
2018-11-03T12:29:44.281Z,99.99
2018-11-03T12:30:44.508Z,99.99
2018-11-03T12:31:44.739Z,99.99
2018-11-03T12:32:44.973Z,99.99
2018-11-03T12:33:45.200Z,99.99
2018-11-03T12:34:45.432Z,99.99
2018-11-03T12:35:45.657Z,99.99
2018-11-03T12:36:45.882Z,99.99
2018-11-03T12:37:46.111Z,99.99
2018-11-03T12:38:46.340Z,99.99
2018-11-03T12:39:46.567Z,99.99
2018-11-03T12:40:46.861Z,99.99
2018-11-03T12:41:47.024Z,99.99
2018-11-03T12:42:47.254Z,99.99
2018-11-03T12:43:47.487Z,99.99
2018-11-03T12:44:47.737Z,99.99
2018-11-03T12:45:47.937Z,99.99
2018-11-03T12:46:48.213Z,99.99
2018-11-03T12:47:48.379Z,99.99
2018-11-03T12:48:48.625Z,99.99
2018-11-03T12:49:48.834Z,99.99
2018-11-03T12:50:49.058Z,99.99
2018-11-03T12:51:49.320Z,99.99
2018-11-03T12:52:49.517Z,99.99
2018-11-03T12:53:49.748Z,99.99
2018-11-03T12:54:49.971Z,99.99
2018-11-03T12:55:50.206Z,99.99